sensor_id;sensor_type;location;lat;lon;timestamp;P1;durP1;ratioP1;P2;durP2;ratioP2
3401;SDS011;1714;49.756;8.610;2023-02-19T04:32:54;6.88;;;4.90;;
3401;SDS011;1714;49.756;8.610;2023-02-19T04:43:30;5.28;;;4.78;;
3401;SDS011;1714;49.756;8.610;2023-02-19T04:54:06;7.20;;;5.07;;
3401;SDS011;1714;49.756;8.610;2023-02-19T05:04:42;5.95;;;5.18;;
3401;SDS011;1714;49.756;8.610;2023-02-19T05:15:17;6.68;;;5.80;;
3401;SDS011;1714;49.756;8.610;2023-02-19T05:25:53;6.00;;;5.10;;
3401;SDS011;1714;49.756;8.610;2023-02-19T05:36:28;8.27;;;5.90;;
3401;SDS011;1714;49.756;8.610;2023-02-19T05:47:04;7.57;;;5.20;;
3401;SDS011;1714;49.756;8.610;2023-02-19T05:57:41;6.38;;;4.70;;
3401;SDS011;1714;49.756;8.610;2023-02-19T06:08:18;5.95;;;5.35;;
3401;SDS011;1714;49.756;8.610;2023-02-19T06:18:54;5.47;;;4.75;;
3401;SDS011;1714;49.756;8.610;2023-02-19T06:29:30;4.95;;;4.30;;
3401;SDS011;1714;49.756;8.610;2023-02-19T06:40:07;5.05;;;4.43;;
3401;SDS011;1714;49.756;8.610;2023-02-19T06:50:42;4.53;;;3.95;;
3401;SDS011;1714;49.756;8.610;2023-02-19T07:01:18;6.15;;;4.00;;
3401;SDS011;1714;49.756;8.610;2023-02-19T07:11:54;4.25;;;3.85;;
3401;SDS011;1714;49.756;8.610;2023-02-19T07:22:29;4.60;;;3.78;;
3401;SDS011;1714;49.756;8.610;2023-02-19T07:33:04;4.30;;;3.72;;
3401;SDS011;1714;49.756;8.610;2023-02-19T07:54:19;3.53;;;3.20;;
3401;SDS011;1714;49.756;8.610;2023-02-19T08:04:55;4.10;;;3.00;;
3401;SDS011;1714;49.756;8.610;2023-02-19T08:15:31;5.50;;;3.40;;
3401;SDS011;1714;49.756;8.610;2023-02-19T08:26:07;4.40;;;2.65;;
3401;SDS011;1714;49.756;8.610;2023-02-19T08:36:43;2.88;;;1.63;;
3401;SDS011;1714;49.756;8.610;2023-02-19T08:47:19;4.35;;;1.63;;
3401;SDS011;1714;49.756;8.610;2023-02-19T08:57:55;2.72;;;1.30;;
3401;SDS011;1714;49.756;8.610;2023-02-19T09:08:31;4.15;;;1.83;;
3401;SDS011;1714;49.756;8.610;2023-02-19T09:19:07;3.70;;;1.90;;
3401;SDS011;1714;49.756;8.610;2023-02-19T09:29:43;6.90;;;2.08;;
3401;SDS011;1714;49.756;8.610;2023-02-19T09:40:19;4.53;;;1.25;;
3401;SDS011;1714;49.756;8.610;2023-02-19T09:50:56;2.42;;;1.02;;
3401;SDS011;1714;49.756;8.610;2023-02-19T10:01:33;2.80;;;1.30;;
3401;SDS011;1714;49.756;8.610;2023-02-19T10:12:14;4.35;;;1.13;;
3401;SDS011;1714;49.756;8.610;2023-02-19T10:22:58;4.05;;;1.25;;
3401;SDS011;1714;49.756;8.610;2023-02-19T10:33:47;5.45;;;1.40;;
3401;SDS011;1714;49.756;8.610;2023-02-19T10:44:25;4.05;;;1.40;;
3401;SDS011;1714;49.756;8.610;2023-02-19T10:55:15;4.10;;;1.17;;
3401;SDS011;1714;49.756;8.610;2023-02-19T11:06:01;4.03;;;1.00;;
3401;SDS011;1714;49.756;8.610;2023-02-19T11:17:00;7.40;;;1.42;;
3401;SDS011;1714;49.756;8.610;2023-02-19T11:27:52;3.42;;;1.17;;
3401;SDS011;1714;49.756;8.610;2023-02-19T11:38:32;5.53;;;1.27;;
3401;SDS011;1714;49.756;8.610;2023-02-19T12:21:47;2.80;;;0.97;;
3401;SDS011;1714;49.756;8.610;2023-02-19T12:43:28;8.05;;;1.60;;
3401;SDS011;1714;49.756;8.610;2023-02-19T12:54:28;10.95;;;1.75;;
3401;SDS011;1714;49.756;8.610;2023-02-19T13:05:14;4.50;;;1.35;;
3401;SDS011;1714;49.756;8.610;2023-02-19T13:15:55;8.07;;;1.70;;
3401;SDS011;1714;49.756;8.610;2023-02-19T13:37:32;2.15;;;1.35;;
3401;SDS011;1714;49.756;8.610;2023-02-19T13:58:54;5.80;;;1.15;;
3401;SDS011;1714;49.756;8.610;2023-02-19T14:41:31;4.18;;;1.17;;
3401;SDS011;1714;49.756;8.610;2023-02-19T14:52:15;2.30;;;1.15;;
3401;SDS011;1714;49.756;8.610;2023-02-19T15:02:59;2.45;;;1.30;;
3401;SDS011;1714;49.756;8.610;2023-02-19T15:13:36;5.43;;;1.52;;
3401;SDS011;1714;49.756;8.610;2023-02-19T15:24:19;5.35;;;1.58;;
3401;SDS011;1714;49.756;8.610;2023-02-19T15:34:59;3.00;;;1.38;;
3401;SDS011;1714;49.756;8.610;2023-02-19T15:45:40;11.10;;;1.85;;
3401;SDS011;1714;49.756;8.610;2023-02-19T15:56:21;3.75;;;1.48;;
3401;SDS011;1714;49.756;8.610;2023-02-19T16:07:03;3.00;;;2.03;;
3401;SDS011;1714;49.756;8.610;2023-02-19T16:17:42;4.57;;;2.70;;
3401;SDS011;1714;49.756;8.610;2023-02-19T16:28:22;8.20;;;2.47;;
3401;SDS011;1714;49.756;8.610;2023-02-19T16:49:41;8.32;;;4.63;;
3401;SDS011;1714;49.756;8.610;2023-02-19T17:00:19;11.38;;;6.82;;
3401;SDS011;1714;49.756;8.610;2023-02-19T17:10:55;10.27;;;6.97;;
3401;SDS011;1714;49.756;8.610;2023-02-19T17:21:31;5.95;;;1.83;;
3401;SDS011;1714;49.756;8.610;2023-02-19T17:32:08;3.88;;;1.35;;
3401;SDS011;1714;49.756;8.610;2023-02-19T17:42:44;2.05;;;1.50;;
3401;SDS011;1714;49.756;8.610;2023-02-19T17:53:20;2.67;;;1.30;;
3401;SDS011;1714;49.756;8.610;2023-02-19T18:03:56;4.90;;;1.83;;
3401;SDS011;1714;49.756;8.610;2023-02-19T18:14:32;5.68;;;1.60;;
3401;SDS011;1714;49.756;8.610;2023-02-19T18:25:08;4.72;;;2.22;;
3401;SDS011;1714;49.756;8.610;2023-02-19T18:35:44;5.22;;;1.50;;
3401;SDS011;1714;49.756;8.610;2023-02-19T18:46:23;3.60;;;1.40;;
3401;SDS011;1714;49.756;8.610;2023-02-19T18:56:58;4.45;;;1.80;;
3401;SDS011;1714;49.756;8.610;2023-02-19T19:07:35;4.25;;;2.05;;
3401;SDS011;1714;49.756;8.610;2023-02-19T19:18:11;3.05;;;1.63;;
3401;SDS011;1714;49.756;8.610;2023-02-19T19:28:46;2.58;;;2.10;;
3401;SDS011;1714;49.756;8.610;2023-02-19T19:39:22;6.97;;;2.20;;
3401;SDS011;1714;49.756;8.610;2023-02-19T19:49:58;5.00;;;2.90;;
3401;SDS011;1714;49.756;8.610;2023-02-19T20:00:34;4.68;;;3.55;;
3401;SDS011;1714;49.756;8.610;2023-02-19T20:11:10;4.18;;;2.60;;
3401;SDS011;1714;49.756;8.610;2023-02-19T20:21:47;5.78;;;3.15;;
3401;SDS011;1714;49.756;8.610;2023-02-19T20:32:25;9.03;;;3.63;;
3401;SDS011;1714;49.756;8.610;2023-02-19T20:43:00;7.30;;;3.25;;
3401;SDS011;1714;49.756;8.610;2023-02-19T20:53:36;11.57;;;3.63;;
3401;SDS011;1714;49.756;8.610;2023-02-19T21:04:14;8.38;;;3.35;;
3401;SDS011;1714;49.756;8.610;2023-02-19T21:14:51;8.15;;;2.92;;
3401;SDS011;1714;49.756;8.610;2023-02-19T21:25:27;9.30;;;3.38;;
3401;SDS011;1714;49.756;8.610;2023-02-19T21:36:05;8.05;;;3.25;;
3401;SDS011;1714;49.756;8.610;2023-02-19T21:46:41;7.00;;;3.03;;
3401;SDS011;1714;49.756;8.610;2023-02-19T21:57:17;11.65;;;3.13;;
3401;SDS011;1714;49.756;8.610;2023-02-19T22:07:52;7.60;;;2.80;;
3401;SDS011;1714;49.756;8.610;2023-02-19T22:18:28;8.27;;;2.78;;
3401;SDS011;1714;49.756;8.610;2023-02-19T22:29:04;12.50;;;3.83;;
